createdAt,value
2023-02-23T00:00:51.607Z,100.00
2023-02-23T00:01:48.332Z,100.00
2023-02-23T00:02:45.113Z,100.00
2023-02-23T00:03:44.987Z,100.00
2023-02-23T00:04:42.143Z,100.00
2023-02-23T00:05:39.008Z,100.00
2023-02-23T00:06:37.273Z,100.00
2023-02-23T00:07:34.246Z,99.67
2023-02-23T00:08:32.138Z,99.15
2023-02-23T00:09:35.380Z,99.19
2023-02-23T00:10:34.684Z,98.89
2023-02-23T00:11:33.688Z,99.34
2023-02-23T00:12:30.587Z,99.73
2023-02-23T00:13:27.317Z,100.00
2023-02-23T00:14:29.154Z,100.00
2023-02-23T00:15:27.951Z,100.00
2023-02-23T00:16:26.537Z,100.00
2023-02-23T00:17:24.512Z,100.00
2023-02-23T00:18:22.930Z,100.00
2023-02-23T00:19:24.930Z,100.00
2023-02-23T00:20:27.723Z,100.00
2023-02-23T00:21:29.877Z,100.00
2023-02-23T00:22:27.128Z,100.00
2023-02-23T00:23:27.421Z,100.00
2023-02-23T00:24:27.049Z,100.00
2023-02-23T00:25:25.345Z,100.00
2023-02-23T00:26:25.191Z,100.00
2023-02-23T00:27:22.151Z,100.00
2023-02-23T00:28:18.969Z,100.00
2023-02-23T00:29:19.000Z,100.00
2023-02-23T00:30:18.850Z,100.00
2023-02-23T00:31:19.305Z,100.00
2023-02-23T00:32:20.094Z,100.00
2023-02-23T00:33:19.089Z,100.00
2023-02-23T00:34:21.524Z,100.00
2023-02-23T00:35:19.439Z,100.00
2023-02-23T00:36:16.516Z,100.00
2023-02-23T00:37:13.584Z,100.00
2023-02-23T00:38:10.808Z,100.00
2023-02-23T00:39:22.217Z,100.00
2023-02-23T00:40:23.877Z,100.00
2023-02-23T00:41:28.577Z,100.00
2023-02-23T00:42:32.258Z,100.00
2023-02-23T00:43:33.950Z,100.00
2023-02-23T00:44:33.880Z,100.00
2023-02-23T00:45:30.708Z,100.00
2023-02-23T00:46:30.368Z,100.00
2023-02-23T00:47:27.137Z,100.00
2023-02-23T00:48:24.053Z,100.00
2023-02-23T00:49:23.060Z,100.00
2023-02-23T00:50:19.935Z,100.00
2023-02-23T00:51:19.149Z,100.00
2023-02-23T00:52:18.619Z,100.00
2023-02-23T00:53:15.830Z,100.00
2023-02-23T00:54:17.705Z,100.00
2023-02-23T00:55:15.608Z,100.00
2023-02-23T00:56:15.074Z,100.00
2023-02-23T00:57:11.840Z,100.00
2023-02-23T00:58:09.685Z,100.00
2023-02-23T00:59:07.125Z,100.00
2023-02-23T01:00:21.508Z,100.00
2023-02-23T01:01:19.475Z,100.00
2023-02-23T01:02:16.513Z,100.00
2023-02-23T01:03:13.336Z,100.00
2023-02-23T01:04:13.419Z,100.00
2023-02-23T01:05:11.770Z,100.00
2023-02-23T01:06:13.181Z,100.00
2023-02-23T01:07:13.049Z,100.00
2023-02-23T01:08:11.012Z,100.00
2023-02-23T01:09:11.122Z,100.00
2023-02-23T01:10:21.941Z,100.00
2023-02-23T01:11:22.335Z,100.00
2023-02-23T01:12:19.126Z,100.00
2023-02-23T01:13:18.126Z,100.00
2023-02-23T01:14:15.488Z,100.00
2023-02-23T01:15:12.221Z,100.00
2023-02-23T01:16:13.044Z,100.00
2023-02-23T01:17:09.824Z,100.00
2023-02-23T01:18:07.227Z,100.00
2023-02-23T01:19:04.972Z,100.00
2023-02-23T01:20:01.828Z,100.00
2023-02-23T01:20:58.616Z,100.00
2023-02-23T01:21:55.446Z,100.00
2023-02-23T01:22:52.263Z,100.00
2023-02-23T01:23:50.332Z,100.00
2023-02-23T01:24:47.236Z,100.00
2023-02-23T01:25:45.547Z,100.00
2023-02-23T01:26:45.051Z,100.00
2023-02-23T01:27:42.613Z,100.00
2023-02-23T01:28:39.458Z,100.00
2023-02-23T01:29:36.449Z,100.00
2023-02-23T01:30:33.211Z,100.00
2023-02-23T01:31:30.518Z,100.00
2023-02-23T01:32:27.513Z,100.00
2023-02-23T01:33:24.370Z,100.00
2023-02-23T01:34:21.906Z,100.00
2023-02-23T01:35:18.822Z,100.00
2023-02-23T01:36:15.661Z,100.00
2023-02-23T01:37:12.423Z,100.00
2023-02-23T01:38:10.104Z,100.00
2023-02-23T01:39:12.196Z,100.00
2023-02-23T01:40:15.312Z,100.00
2023-02-23T01:41:12.197Z,100.00
2023-02-23T01:42:15.076Z,100.00
2023-02-23T01:43:14.416Z,100.00
2023-02-23T01:44:13.958Z,100.00
2023-02-23T01:45:19.919Z,100.00
2023-02-23T01:46:17.082Z,100.00
2023-02-23T01:47:14.600Z,100.00
2023-02-23T01:48:17.488Z,100.00
2023-02-23T01:49:20.546Z,100.00
2023-02-23T01:50:22.065Z,100.00
2023-02-23T01:51:23.885Z,100.00
2023-02-23T01:52:20.954Z,100.00
2023-02-23T01:53:21.579Z,100.00
2023-02-23T01:54:31.203Z,100.00
2023-02-23T01:55:29.904Z,100.00
2023-02-23T01:56:34.504Z,100.00
2023-02-23T01:57:31.765Z,100.00
2023-02-23T01:58:30.569Z,100.00
2023-02-23T01:59:39.850Z,100.00
2023-02-23T02:00:36.834Z,100.00
2023-02-23T02:01:33.645Z,100.00
2023-02-23T02:02:33.907Z,100.00
2023-02-23T02:03:38.346Z,100.00
2023-02-23T02:04:44.528Z,100.00
2023-02-23T02:05:42.294Z,100.00
2023-02-23T02:06:40.260Z,100.00
2023-02-23T02:07:39.618Z,100.00
2023-02-23T02:08:47.614Z,100.00
2023-02-23T02:10:05.911Z,100.00
2023-02-23T02:11:09.723Z,100.00
2023-02-23T02:12:11.658Z,100.00
2023-02-23T02:13:14.852Z,100.00
2023-02-23T02:14:21.003Z,100.00
2023-02-23T02:15:19.730Z,100.00
2023-02-23T02:16:35.107Z,100.00
2023-02-23T02:17:56.869Z,100.00
2023-02-23T02:19:37.228Z,100.00
2023-02-23T02:20:57.223Z,100.00
2023-02-23T02:21:53.980Z,100.00
2023-02-23T02:23:14.604Z,100.00
2023-02-23T02:24:32.586Z,100.00
2023-02-23T02:25:41.036Z,100.00
2023-02-23T02:26:46.766Z,100.00
2023-02-23T02:28:22.317Z,100.00
2023-02-23T02:29:58.259Z,100.00
2023-02-23T02:31:24.085Z,100.00
2023-02-23T02:33:04.142Z,100.00
2023-02-23T02:34:32.818Z,100.00
2023-02-23T02:36:22.808Z,100.00
2023-02-23T02:37:49.685Z,100.00
2023-02-23T02:39:10.453Z,100.00
2023-02-23T02:40:39.684Z,100.00
2023-02-23T02:41:42.524Z,100.00
2023-02-23T02:42:55.233Z,100.00
2023-02-23T02:44:07.603Z,100.00
2023-02-23T02:45:55.474Z,100.00
2023-02-23T02:47:01.283Z,100.00
2023-02-23T02:48:00.853Z,100.00
2023-02-23T02:49:02.520Z,100.00
2023-02-23T02:50:22.520Z,100.00
2023-02-23T02:51:23.125Z,100.00
2023-02-23T02:52:43.377Z,100.00
2023-02-23T02:53:58.436Z,100.00
2023-02-23T02:55:12.252Z,100.00
2023-02-23T02:56:11.789Z,100.00
2023-02-23T02:57:12.812Z,100.00
2023-02-23T02:58:12.841Z,100.00
2023-02-23T02:59:33.051Z,100.00
2023-02-23T03:00:55.067Z,100.00
2023-02-23T03:02:10.233Z,100.00
2023-02-23T03:03:27.606Z,100.00
2023-02-23T03:04:43.994Z,100.00
2023-02-23T03:06:07.971Z,100.00
2023-02-23T03:07:38.574Z,100.00
2023-02-23T03:09:08.244Z,100.00
2023-02-23T03:10:27.623Z,100.00
2023-02-23T03:11:54.083Z,100.00
2023-02-23T03:13:34.029Z,100.00
2023-02-23T03:14:59.571Z,100.00
2023-02-23T03:16:33.439Z,100.00
2023-02-23T03:17:51.811Z,100.00
2023-02-23T03:19:25.905Z,100.00
2023-02-23T03:20:53.542Z,100.00
2023-02-23T03:22:26.915Z,100.00
2023-02-23T03:24:07.885Z,100.00
2023-02-23T03:25:34.937Z,100.00
2023-02-23T03:27:03.958Z,100.00
2023-02-23T03:28:36.904Z,100.00
2023-02-23T03:30:25.258Z,100.00
2023-02-23T03:31:58.833Z,100.00
2023-02-23T03:33:29.730Z,100.00
2023-02-23T03:34:55.560Z,100.00
2023-02-23T03:36:21.710Z,100.00
2023-02-23T03:38:01.076Z,100.00
2023-02-23T03:39:37.009Z,100.00
2023-02-23T03:40:57.904Z,100.00
2023-02-23T03:42:18.744Z,100.00
2023-02-23T03:43:44.119Z,100.00
2023-02-23T03:45:06.354Z,100.00
2023-02-23T03:46:27.625Z,100.00
2023-02-23T03:47:50.625Z,100.00
2023-02-23T03:49:11.270Z,100.00
2023-02-23T03:50:47.200Z,100.00
2023-02-23T03:52:12.060Z,100.00
2023-02-23T03:53:33.158Z,100.00
2023-02-23T03:55:13.153Z,100.00
2023-02-23T03:56:33.787Z,100.00
2023-02-23T03:57:54.929Z,100.00
2023-02-23T03:59:18.025Z,100.00
2023-02-23T04:00:43.307Z,100.00
2023-02-23T04:01:59.666Z,100.00
2023-02-23T04:03:19.007Z,100.00
2023-02-23T04:04:34.575Z,100.00
2023-02-23T04:05:53.762Z,100.00
2023-02-23T04:07:14.173Z,100.00
2023-02-23T04:08:35.975Z,100.00
2023-02-23T04:09:51.260Z,100.00
2023-02-23T04:11:18.249Z,100.00
2023-02-23T04:12:46.364Z,100.00
2023-02-23T04:13:49.971Z,100.00
2023-02-23T04:14:57.597Z,100.00
2023-02-23T04:16:00.782Z,100.00
2023-02-23T04:16:58.840Z,100.00
2023-02-23T04:17:56.513Z,100.00
2023-02-23T04:18:53.651Z,100.00
2023-02-23T04:19:52.568Z,100.00
2023-02-23T04:20:49.330Z,100.00
2023-02-23T04:21:46.059Z,100.00
2023-02-23T04:22:42.893Z,100.00
2023-02-23T04:23:42.724Z,100.00
2023-02-23T04:24:39.503Z,100.00
2023-02-23T04:25:36.249Z,100.00
2023-02-23T04:26:36.011Z,100.00
2023-02-23T04:27:32.704Z,100.00
2023-02-23T04:28:29.477Z,100.00
2023-02-23T04:29:26.358Z,100.00
2023-02-23T04:30:25.778Z,100.00
2023-02-23T04:31:25.367Z,100.00
2023-02-23T04:32:22.430Z,100.00
2023-02-23T04:33:25.029Z,100.00
2023-02-23T04:34:21.827Z,100.00
2023-02-23T04:35:18.789Z,100.00
2023-02-23T04:36:15.661Z,100.00
2023-02-23T04:37:13.429Z,100.00
2023-02-23T04:38:10.293Z,100.00
2023-02-23T04:39:06.999Z,100.00
2023-02-23T04:40:04.001Z,100.00
2023-02-23T04:41:00.872Z,100.00
2023-02-23T04:41:57.623Z,100.00
2023-02-23T04:42:55.489Z,100.00
2023-02-23T04:43:52.259Z,100.00
2023-02-23T04:44:49.558Z,100.00
2023-02-23T04:45:46.493Z,100.00
2023-02-23T04:46:43.482Z,100.00
2023-02-23T04:47:40.291Z,100.00
2023-02-23T04:48:37.115Z,100.00
2023-02-23T04:49:34.016Z,100.00
2023-02-23T04:50:32.562Z,100.00
2023-02-23T04:51:32.331Z,100.00
2023-02-23T04:52:29.188Z,100.00
2023-02-23T04:53:27.152Z,100.00
2023-02-23T04:54:23.958Z,100.00
2023-02-23T04:55:24.063Z,100.00
2023-02-23T04:56:20.877Z,100.00
2023-02-23T04:57:17.694Z,100.00
2023-02-23T04:58:14.734Z,100.00
2023-02-23T04:59:11.530Z,100.00
2023-02-23T05:00:09.238Z,100.00
2023-02-23T05:01:09.887Z,100.00
2023-02-23T05:02:07.220Z,100.00
2023-02-23T05:03:06.545Z,100.00
2023-02-23T05:04:03.505Z,100.00
2023-02-23T05:05:00.456Z,100.00
2023-02-23T05:05:57.232Z,100.00
2023-02-23T05:06:53.992Z,100.00
2023-02-23T05:07:50.935Z,100.00
2023-02-23T05:09:06.353Z,100.00
2023-02-23T05:10:05.292Z,100.00
2023-02-23T05:11:02.161Z,100.00
2023-02-23T05:11:59.229Z,100.00
2023-02-23T05:12:56.379Z,100.00
2023-02-23T05:13:54.257Z,100.00
2023-02-23T05:14:51.392Z,100.00
2023-02-23T05:15:50.202Z,100.00
2023-02-23T05:16:47.024Z,100.00
2023-02-23T05:17:43.935Z,100.00
2023-02-23T05:18:40.747Z,100.00
2023-02-23T05:19:38.004Z,100.00
2023-02-23T05:20:34.954Z,100.00
2023-02-23T05:21:31.812Z,100.00
2023-02-23T05:22:28.718Z,100.00
2023-02-23T05:23:25.450Z,100.00
2023-02-23T05:24:22.516Z,100.00
2023-02-23T05:25:19.340Z,100.00
2023-02-23T05:26:16.787Z,100.00
2023-02-23T05:27:14.098Z,100.00
2023-02-23T05:28:10.893Z,100.00
2023-02-23T05:29:07.791Z,100.00
2023-02-23T05:30:07.830Z,100.00
2023-02-23T05:31:05.528Z,100.00
2023-02-23T05:32:02.541Z,100.00
2023-02-23T05:32:59.645Z,100.00
2023-02-23T05:33:56.352Z,100.00
2023-02-23T05:34:53.105Z,100.00
2023-02-23T05:35:49.981Z,100.00
2023-02-23T05:36:46.781Z,100.00
2023-02-23T05:37:44.710Z,100.00
2023-02-23T05:38:41.434Z,100.00
2023-02-23T05:39:40.873Z,100.00
2023-02-23T05:40:37.678Z,100.00
2023-02-23T05:41:34.836Z,100.00
2023-02-23T05:42:31.700Z,100.00
2023-02-23T05:43:28.918Z,100.00
2023-02-23T05:44:25.708Z,100.00
2023-02-23T05:45:23.613Z,100.00
2023-02-23T05:46:24.230Z,100.00
2023-02-23T05:47:20.983Z,100.00
2023-02-23T05:48:17.712Z,100.00
2023-02-23T05:49:14.584Z,100.00
2023-02-23T05:50:11.800Z,100.00
2023-02-23T05:51:12.706Z,100.00
2023-02-23T05:52:09.495Z,100.00
2023-02-23T05:53:06.361Z,100.00
2023-02-23T05:54:03.250Z,100.00
2023-02-23T05:55:00.229Z,100.00
2023-02-23T05:55:57.003Z,100.00
2023-02-23T05:56:53.849Z,100.00
2023-02-23T05:57:53.415Z,100.00
2023-02-23T05:58:53.838Z,100.00
2023-02-23T05:59:50.794Z,100.00
2023-02-23T06:00:47.721Z,100.00
2023-02-23T06:01:44.597Z,100.00
2023-02-23T06:02:42.135Z,100.00
2023-02-23T06:03:39.476Z,100.00
2023-02-23T06:04:36.488Z,100.00
2023-02-23T06:05:33.207Z,100.00
2023-02-23T06:06:29.996Z,100.00
2023-02-23T06:07:26.785Z,100.00
2023-02-23T06:08:25.605Z,100.00
2023-02-23T06:09:22.328Z,100.00
2023-02-23T06:10:19.231Z,100.00
2023-02-23T06:11:16.199Z,100.00
2023-02-23T06:12:13.096Z,100.00
2023-02-23T06:13:10.472Z,100.00
2023-02-23T06:14:07.470Z,100.00
2023-02-23T06:15:04.702Z,100.00
2023-02-23T06:16:01.608Z,100.00
2023-02-23T06:16:59.777Z,100.00
2023-02-23T06:17:56.844Z,100.00
2023-02-23T06:18:58.888Z,100.00
2023-02-23T06:19:55.797Z,100.00
2023-02-23T06:20:52.646Z,100.00
2023-02-23T06:21:49.441Z,100.00
2023-02-23T06:22:46.415Z,100.00
2023-02-23T06:23:43.309Z,100.00
2023-02-23T06:24:40.087Z,100.00
2023-02-23T06:25:36.944Z,100.00
2023-02-23T06:26:35.288Z,100.00
2023-02-23T06:27:32.130Z,100.00
2023-02-23T06:28:29.779Z,100.00
2023-02-23T06:29:27.150Z,100.00
2023-02-23T06:30:24.325Z,100.00
2023-02-23T06:31:21.750Z,100.00
2023-02-23T06:32:18.887Z,100.00
2023-02-23T06:33:15.861Z,100.00
2023-02-23T06:34:12.656Z,100.00
2023-02-23T06:35:09.684Z,100.00
2023-02-23T06:36:06.843Z,100.00
2023-02-23T06:37:03.645Z,100.00
2023-02-23T06:38:01.805Z,100.00
2023-02-23T06:38:59.656Z,100.00
2023-02-23T06:39:56.432Z,100.00
2023-02-23T06:40:53.252Z,100.00
2023-02-23T06:41:50.033Z,100.00
2023-02-23T06:42:47.234Z,100.00
2023-02-23T06:43:44.764Z,100.00
2023-02-23T06:44:41.535Z,100.00
2023-02-23T06:45:38.495Z,100.00
2023-02-23T06:46:36.310Z,100.00
2023-02-23T06:47:33.712Z,100.00
2023-02-23T06:48:30.600Z,100.00
2023-02-23T06:49:27.352Z,100.00
2023-02-23T06:50:26.175Z,100.00
2023-02-23T06:51:23.884Z,100.00
2023-02-23T06:52:21.374Z,100.00
2023-02-23T06:53:18.451Z,100.00
2023-02-23T06:54:16.234Z,100.00
2023-02-23T06:55:19.116Z,100.00
2023-02-23T06:56:15.891Z,100.00
2023-02-23T06:57:12.709Z,100.00
2023-02-23T06:58:09.728Z,100.00
2023-02-23T06:59:08.914Z,100.00
2023-02-23T07:00:06.350Z,100.00
2023-02-23T07:01:03.256Z,100.00
2023-02-23T07:02:00.094Z,100.00
2023-02-23T07:02:57.945Z,100.00
2023-02-23T07:03:54.765Z,100.00
2023-02-23T07:04:51.587Z,100.00
2023-02-23T07:05:50.178Z,100.00
2023-02-23T07:06:47.048Z,100.00
2023-02-23T07:07:44.043Z,100.00
2023-02-23T07:08:40.806Z,100.00
2023-02-23T07:09:39.761Z,100.00
2023-02-23T07:10:36.541Z,100.00
2023-02-23T07:11:33.440Z,100.00
2023-02-23T07:12:35.740Z,100.00
2023-02-23T07:13:32.685Z,100.00
2023-02-23T07:14:29.592Z,100.00
2023-02-23T07:15:26.497Z,100.00
2023-02-23T07:16:23.972Z,100.00
2023-02-23T07:17:20.693Z,100.00
2023-02-23T07:18:17.520Z,100.00
2023-02-23T07:19:14.275Z,100.00
2023-02-23T07:20:11.813Z,100.00
2023-02-23T07:21:08.651Z,100.00
2023-02-23T07:22:05.981Z,100.00
2023-02-23T07:23:02.894Z,100.00
2023-02-23T07:24:01.072Z,100.00
2023-02-23T07:24:58.088Z,100.00
2023-02-23T07:25:58.125Z,100.00
2023-02-23T07:26:55.324Z,100.00
2023-02-23T07:27:54.114Z,100.00
2023-02-23T07:28:54.120Z,100.00
2023-02-23T07:29:51.075Z,100.00
2023-02-23T07:30:50.022Z,100.00
2023-02-23T07:31:46.977Z,100.00
2023-02-23T07:32:43.835Z,100.00
2023-02-23T07:33:40.826Z,100.00
2023-02-23T07:34:40.337Z,100.00
2023-02-23T07:35:37.190Z,100.00
2023-02-23T07:36:34.085Z,100.00
2023-02-23T07:37:30.923Z,100.00
2023-02-23T07:38:28.741Z,100.00
2023-02-23T07:39:25.731Z,100.00
2023-02-23T07:40:22.668Z,100.00
2023-02-23T07:41:19.807Z,100.00
2023-02-23T07:42:16.880Z,100.00
2023-02-23T07:43:13.663Z,100.00
2023-02-23T07:44:10.509Z,100.00
2023-02-23T07:45:08.264Z,100.00
2023-02-23T07:46:05.612Z,100.00
2023-02-23T07:47:02.684Z,100.00
2023-02-23T07:48:00.109Z,99.25
2023-02-23T07:48:56.962Z,98.24
2023-02-23T07:49:53.707Z,97.61
2023-02-23T07:50:50.456Z,94.46
2023-02-23T07:51:47.463Z,94.35
2023-02-23T07:52:44.620Z,95.19
2023-02-23T07:53:42.345Z,97.13
2023-02-23T07:54:39.257Z,97.14
2023-02-23T07:55:38.436Z,96.49
2023-02-23T07:56:35.590Z,95.47
2023-02-23T07:57:33.113Z,96.25
2023-02-23T07:58:31.614Z,95.09
2023-02-23T07:59:28.670Z,94.43
2023-02-23T08:00:27.292Z,92.69
2023-02-23T08:01:24.532Z,92.02
2023-02-23T08:02:21.554Z,92.25
2023-02-23T08:03:18.674Z,90.90
2023-02-23T08:04:15.611Z,89.31
2023-02-23T08:05:12.912Z,87.84
2023-02-23T08:06:09.677Z,87.14
2023-02-23T08:07:07.640Z,86.27
2023-02-23T08:08:04.820Z,86.47
2023-02-23T08:09:03.876Z,86.39
2023-02-23T08:10:28.001Z,85.55
2023-02-23T08:11:24.804Z,85.12
2023-02-23T08:12:21.541Z,83.49
2023-02-23T08:13:18.400Z,83.33
2023-02-23T08:14:15.314Z,82.03
2023-02-23T08:15:12.335Z,81.86
2023-02-23T08:16:09.245Z,79.77
2023-02-23T08:17:06.086Z,80.67
2023-02-23T08:18:03.207Z,78.85
2023-02-23T08:19:01.273Z,78.37
2023-02-23T08:19:58.050Z,78.88
2023-02-23T08:21:05.098Z,79.58
2023-02-23T08:22:01.964Z,79.43
2023-02-23T08:22:59.726Z,80.60
2023-02-23T08:23:57.732Z,79.11
2023-02-23T08:24:54.518Z,77.72
2023-02-23T08:25:51.250Z,77.20
2023-02-23T08:26:50.005Z,76.42
2023-02-23T08:27:47.924Z,75.47
2023-02-23T08:28:46.545Z,76.77
2023-02-23T08:29:43.353Z,76.55
2023-02-23T08:30:41.707Z,76.30
2023-02-23T08:31:38.658Z,76.70
2023-02-23T08:32:36.294Z,75.97
2023-02-23T08:33:33.373Z,75.19
2023-02-23T08:34:30.536Z,73.50
2023-02-23T08:35:27.946Z,73.50
2023-02-23T08:36:24.939Z,72.76
2023-02-23T08:37:21.737Z,72.77
2023-02-23T08:38:18.853Z,70.62
2023-02-23T08:39:16.419Z,71.05
2023-02-23T08:40:15.606Z,71.71
2023-02-23T08:41:12.706Z,71.70
2023-02-23T08:42:09.639Z,70.68
2023-02-23T08:43:06.365Z,71.29
2023-02-23T08:44:03.250Z,70.99
2023-02-23T08:45:01.484Z,70.47
2023-02-23T08:45:58.487Z,69.94
2023-02-23T08:46:55.784Z,69.99
2023-02-23T08:47:54.634Z,69.74
2023-02-23T08:48:52.560Z,69.51
2023-02-23T08:49:50.851Z,69.33
2023-02-23T08:50:49.960Z,70.40
2023-02-23T08:51:47.176Z,69.67
2023-02-23T08:52:44.009Z,69.87
2023-02-23T08:53:40.988Z,68.83
2023-02-23T08:54:37.842Z,69.08
2023-02-23T08:55:35.677Z,69.13
2023-02-23T08:56:50.982Z,68.76
2023-02-23T08:58:09.466Z,68.07
2023-02-23T08:59:25.749Z,67.83
2023-02-23T09:00:40.833Z,68.03
2023-02-23T09:01:56.124Z,67.72
2023-02-23T09:03:11.729Z,66.93
2023-02-23T09:04:27.161Z,65.93
2023-02-23T09:05:44.309Z,66.78
2023-02-23T09:06:59.700Z,66.45
2023-02-23T09:08:15.616Z,66.56
2023-02-23T09:09:30.956Z,66.19
2023-02-23T09:10:46.279Z,66.19
2023-02-23T09:12:01.709Z,66.16
2023-02-23T09:13:17.260Z,66.08
2023-02-23T09:14:32.757Z,65.51
2023-02-23T09:15:48.244Z,65.09
2023-02-23T09:17:04.438Z,65.24
2023-02-23T09:18:19.416Z,64.96
2023-02-23T09:19:34.818Z,64.56
2023-02-23T09:20:51.060Z,64.62
2023-02-23T09:22:06.300Z,63.85
2023-02-23T09:23:21.776Z,62.43
2023-02-23T09:24:38.398Z,62.06
2023-02-23T09:25:54.073Z,62.01
2023-02-23T09:27:12.607Z,60.94
2023-02-23T09:28:31.175Z,62.15
2023-02-23T09:29:46.390Z,61.66
2023-02-23T09:31:08.345Z,62.03
2023-02-23T09:32:23.744Z,62.64
2023-02-23T09:33:40.201Z,62.32
2023-02-23T09:34:55.514Z,62.14
2023-02-23T09:36:23.665Z,62.30
2023-02-23T09:37:39.036Z,62.90
2023-02-23T09:38:57.733Z,62.74
2023-02-23T09:40:23.064Z,63.46
2023-02-23T09:42:11.245Z,63.46
2023-02-23T09:43:32.258Z,63.05
2023-02-23T09:44:57.435Z,62.44
2023-02-23T09:46:54.152Z,61.29
2023-02-23T09:48:09.818Z,60.25
2023-02-23T09:49:31.872Z,59.39
2023-02-23T09:50:57.919Z,59.48
2023-02-23T09:52:26.500Z,59.18
2023-02-23T09:53:52.387Z,58.88
2023-02-23T09:55:12.586Z,57.78
2023-02-23T09:56:38.381Z,58.23
2023-02-23T09:57:57.045Z,57.88
2023-02-23T09:59:18.798Z,57.53
2023-02-23T10:00:44.730Z,57.42
2023-02-23T10:02:06.279Z,57.02
2023-02-23T10:03:26.188Z,56.71
2023-02-23T10:04:57.670Z,56.93
2023-02-23T10:06:18.497Z,56.53
2023-02-23T10:07:55.986Z,56.27
2023-02-23T10:09:19.577Z,55.97
2023-02-23T10:10:47.412Z,55.86
2023-02-23T10:12:19.926Z,55.63
2023-02-23T10:14:04.583Z,55.72
2023-02-23T10:15:31.755Z,55.38
2023-02-23T10:16:56.329Z,55.75
2023-02-23T10:18:45.594Z,55.19
2023-02-23T10:20:14.206Z,55.09
2023-02-23T10:21:40.332Z,54.26
2023-02-23T10:22:41.638Z,53.86
2023-02-23T10:23:58.714Z,53.94
2023-02-23T10:25:17.909Z,53.84
2023-02-23T10:26:23.297Z,54.13
2023-02-23T10:27:24.657Z,53.75
2023-02-23T10:28:22.824Z,53.63
2023-02-23T10:29:32.594Z,53.51
2023-02-23T10:30:32.832Z,53.37
2023-02-23T10:31:47.821Z,53.48
2023-02-23T10:32:57.646Z,52.62
2023-02-23T10:34:02.397Z,51.95
2023-02-23T10:34:59.962Z,52.45
2023-02-23T10:36:13.766Z,52.51
2023-02-23T10:37:19.754Z,52.51
2023-02-23T10:38:19.013Z,52.27
2023-02-23T10:39:16.105Z,51.93
2023-02-23T10:40:18.592Z,52.02
2023-02-23T10:41:15.420Z,51.41
2023-02-23T10:42:20.592Z,51.22
2023-02-23T10:43:17.455Z,50.84
2023-02-23T10:44:25.333Z,50.51
2023-02-23T10:45:25.701Z,50.74
2023-02-23T10:46:31.421Z,50.36
2023-02-23T10:47:37.851Z,51.06
2023-02-23T10:48:43.230Z,50.63
2023-02-23T10:49:49.852Z,50.79
2023-02-23T10:50:50.097Z,51.29
2023-02-23T10:51:47.031Z,51.10
2023-02-23T10:52:51.049Z,50.82
2023-02-23T10:53:47.911Z,50.92
2023-02-23T10:54:47.867Z,50.84
2023-02-23T10:55:46.981Z,50.67
2023-02-23T10:56:47.055Z,51.08
2023-02-23T10:57:43.940Z,50.58
2023-02-23T10:58:46.686Z,50.27
2023-02-23T11:00:10.657Z,50.36
2023-02-23T11:01:07.653Z,49.78
2023-02-23T11:02:25.814Z,50.28
2023-02-23T11:03:33.185Z,49.59
2023-02-23T11:04:32.820Z,49.03
2023-02-23T11:05:43.047Z,49.18
2023-02-23T11:06:40.257Z,48.41
2023-02-23T11:07:37.072Z,48.63
2023-02-23T11:08:36.569Z,48.63
2023-02-23T11:09:45.647Z,49.07
2023-02-23T11:10:54.731Z,49.00
2023-02-23T11:12:00.436Z,49.21
2023-02-23T11:12:57.275Z,49.32
2023-02-23T11:13:56.774Z,49.21
2023-02-23T11:14:59.344Z,49.21
2023-02-23T11:16:27.641Z,47.82
2023-02-23T11:17:33.482Z,48.12
2023-02-23T11:18:30.999Z,48.07
2023-02-23T11:19:37.186Z,47.71
2023-02-23T11:20:44.385Z,47.84
2023-02-23T11:21:41.368Z,47.65
2023-02-23T11:22:42.371Z,47.76
2023-02-23T11:23:41.458Z,48.22
2023-02-23T11:24:41.589Z,47.81
2023-02-23T11:25:45.198Z,47.28
2023-02-23T11:27:08.087Z,47.01
2023-02-23T11:28:05.403Z,47.09
2023-02-23T11:29:14.233Z,47.35
2023-02-23T11:30:13.773Z,47.31
2023-02-23T11:31:21.296Z,46.50
2023-02-23T11:32:22.882Z,46.81
2023-02-23T11:33:31.587Z,47.61
2023-02-23T11:34:41.243Z,47.64
2023-02-23T11:35:38.569Z,47.42
2023-02-23T11:36:37.933Z,47.34
2023-02-23T11:37:36.459Z,46.69
2023-02-23T11:38:34.226Z,46.33
2023-02-23T11:39:31.102Z,46.42
2023-02-23T11:40:31.532Z,47.15
2023-02-23T11:41:29.571Z,46.89
2023-02-23T11:42:29.673Z,46.73
2023-02-23T11:43:26.576Z,46.40
2023-02-23T11:44:24.338Z,46.15
2023-02-23T11:45:24.271Z,46.28
2023-02-23T11:46:22.934Z,46.50
2023-02-23T11:47:22.935Z,46.37
2023-02-23T11:48:22.963Z,46.17
2023-02-23T11:49:48.077Z,46.13
2023-02-23T11:50:49.805Z,46.53
2023-02-23T11:51:50.458Z,46.71
2023-02-23T11:52:54.785Z,46.98
2023-02-23T11:53:52.510Z,46.51
2023-02-23T11:54:55.500Z,45.77
2023-02-23T11:55:58.217Z,46.38
2023-02-23T11:56:57.042Z,45.63
2023-02-23T11:57:59.583Z,46.17
2023-02-23T11:59:07.513Z,45.97
2023-02-23T12:00:14.267Z,46.58
2023-02-23T12:01:45.783Z,46.25
2023-02-23T12:02:58.813Z,46.52
2023-02-23T12:03:57.896Z,45.93
2023-02-23T12:05:15.691Z,45.38
2023-02-23T12:06:12.546Z,45.51
2023-02-23T12:07:38.959Z,45.32
2023-02-23T12:08:45.348Z,45.41
2023-02-23T12:09:47.058Z,45.58
2023-02-23T12:10:55.843Z,45.76
2023-02-23T12:12:15.692Z,45.17
2023-02-23T12:13:30.413Z,45.59
2023-02-23T12:14:36.461Z,44.93
2023-02-23T12:15:33.324Z,45.39
2023-02-23T12:16:44.099Z,44.60
2023-02-23T12:17:50.897Z,44.69
2023-02-23T12:18:56.771Z,45.13
2023-02-23T12:20:13.124Z,44.35
2023-02-23T12:21:27.671Z,45.12
2023-02-23T12:22:43.507Z,45.28
2023-02-23T12:23:48.670Z,45.15
2023-02-23T12:24:48.642Z,45.62
2023-02-23T12:25:54.241Z,45.27
2023-02-23T12:27:27.925Z,44.33
2023-02-23T12:28:37.190Z,44.25
2023-02-23T12:29:33.866Z,44.89
2023-02-23T12:31:00.134Z,44.64
2023-02-23T12:32:06.532Z,44.15
2023-02-23T12:33:10.394Z,43.82
2023-02-23T12:34:25.637Z,44.14
2023-02-23T12:35:26.864Z,43.83
2023-02-23T12:36:38.546Z,43.67
2023-02-23T12:37:45.208Z,43.83
2023-02-23T12:38:57.493Z,43.88
2023-02-23T12:40:04.010Z,43.98
2023-02-23T12:41:19.914Z,43.55
2023-02-23T12:42:25.956Z,43.63
2023-02-23T12:43:40.394Z,43.63
2023-02-23T12:44:52.052Z,43.33
2023-02-23T12:46:02.891Z,43.19
2023-02-23T12:47:07.975Z,43.15
2023-02-23T12:48:23.713Z,43.06
2023-02-23T12:49:49.373Z,43.40
2023-02-23T12:50:53.671Z,43.81
2023-02-23T12:52:08.959Z,43.66
2023-02-23T12:53:34.114Z,43.40
2023-02-23T12:54:32.811Z,43.46
2023-02-23T12:55:52.692Z,43.51
2023-02-23T12:56:58.375Z,43.16
2023-02-23T12:58:22.498Z,43.38
2023-02-23T12:59:40.365Z,43.30
2023-02-23T13:01:12.285Z,43.14
2023-02-23T13:02:22.969Z,43.42
2023-02-23T13:03:55.196Z,43.36
2023-02-23T13:05:13.201Z,42.98
2023-02-23T13:06:25.158Z,42.81
2023-02-23T13:07:34.960Z,42.72
2023-02-23T13:08:37.524Z,43.23
2023-02-23T13:09:43.218Z,43.00
2023-02-23T13:10:39.894Z,43.07
2023-02-23T13:11:54.669Z,43.08
2023-02-23T13:12:59.986Z,42.73
2023-02-23T13:14:37.262Z,42.43
2023-02-23T13:15:55.254Z,43.04
2023-02-23T13:17:16.763Z,42.26
2023-02-23T13:18:49.119Z,42.56
2023-02-23T13:20:05.654Z,42.00
2023-02-23T13:21:22.144Z,41.75
2023-02-23T13:22:28.911Z,42.17
2023-02-23T13:23:41.569Z,42.06
2023-02-23T13:24:45.717Z,42.03
2023-02-23T13:25:51.136Z,41.91
2023-02-23T13:26:53.336Z,42.05
2023-02-23T13:27:57.400Z,41.65
2023-02-23T13:29:24.855Z,41.78
2023-02-23T13:30:22.649Z,41.63
2023-02-23T13:31:24.871Z,41.66
2023-02-23T13:32:26.338Z,41.59
2023-02-23T13:33:43.662Z,41.47
2023-02-23T13:35:02.029Z,41.49
2023-02-23T13:36:00.673Z,42.10
2023-02-23T13:37:02.477Z,42.17
2023-02-23T13:38:39.349Z,42.19
2023-02-23T13:39:48.180Z,42.08
2023-02-23T13:41:18.446Z,42.32
2023-02-23T13:42:22.534Z,42.62
2023-02-23T13:43:29.058Z,42.98
2023-02-23T13:45:06.525Z,42.97
2023-02-23T13:46:25.776Z,42.79